Time;durP1;ratioP1;P1;durP2;ratioP2;P2;SDS_P1;SDS_P2;PMS_P1;PMS_P2;Temp;Humidity;BMP_temperature;BMP_pressure;BME280_temperature;BME280_humidity;BME280_pressure;Samples;Min_cycle;Max_cycle;Signal;HPM_P1;HPM_P2
2023/04/18 13:15:05;;;;;;;12.10;7.93;;;;;;;15.27;72.05;101424.56;8342531;27;20464;-59
2023/04/18 13:19:06;;;;;;;9.75;7.32;;;;;;;15.52;70.31;101415.75;8314697;28;20111;-59
2023/04/18 13:23:06;;;;;;;10.18;7.07;;;;;;;15.74;68.34;101405.31;8315901;28;20099;-58
2023/04/18 13:27:09;;;;;;;10.25;6.65;;;;;;;15.84;67.57;101418.03;8313745;28;20192;-59
2023/04/18 13:31:09;;;;;;;9.93;6.65;;;;;;;15.91;67.38;101406.38;8313676;28;20565;-59
2023/04/18 13:35:10;;;;;;;7.78;6.85;;;;;;;15.83;67.03;101409.03;8314594;28;20636;-59
2023/04/18 13:39:10;;;;;;;9.75;6.38;;;;;;;15.95;67.14;101406.94;8312259;28;20041;-59
2023/04/18 13:43:11;;;;;;;8.70;6.97;;;;;;;15.86;66.83;101406.00;8313844;28;20120;-59
2023/04/18 13:47:12;;;;;;;9.43;6.47;;;;;;;15.89;68.23;101391.19;8314849;28;20107;-59
2023/04/18 13:51:12;;;;;;;11.35;6.93;;;;;;;16.28;65.29;101392.63;8314775;28;20037;-59
2023/04/18 13:55:13;;;;;;;6.90;6.20;;;;;;;16.72;65.67;101394.41;8312050;28;20073;-59
2023/04/18 13:59:13;;;;;;;10.63;6.20;;;;;;;16.85;63.95;101389.38;8284348;28;20038;-59
2023/04/18 14:03:14;;;;;;;9.07;6.38;;;;;;;16.65;63.46;101391.44;8313889;28;20038;-59
2023/04/18 14:07:15;;;;;;;8.00;6.35;;;;;;;16.88;63.16;101389.06;8313414;28;20045;-59
2023/04/18 14:11:15;;;;;;;9.32;6.10;;;;;;;17.04;62.97;101391.88;8312491;28;20041;-59
2023/04/18 14:15:16;;;;;;;7.22;5.97;;;;;;;17.05;62.48;101389.00;8309955;28;20042;-60
2023/04/18 14:19:17;;;;;;;6.93;5.70;;;;;;;16.89;62.79;101380.69;8338066;28;20412;-59
2023/04/18 14:23:17;;;;;;;8.07;6.22;;;;;;;16.93;63.86;101378.50;8317059;28;20050;-59
2023/04/18 14:27:18;;;;;;;9.07;5.80;;;;;;;16.89;62.77;101374.38;8293023;28;20076;-59
2023/04/18 14:31:18;;;;;;;10.35;6.95;;;;;;;17.00;61.91;101372.25;8284345;28;20050;-59
2023/04/18 14:35:19;;;;;;;8.10;6.43;;;;;;;17.12;62.98;101379.16;8254904;28;20516;-59
2023/04/18 14:39:20;;;;;;;9.50;7.10;;;;;;;16.92;63.68;101371.31;8257700;28;20074;-59
2023/04/18 14:43:20;;;;;;;10.00;7.57;;;;;;;16.65;62.84;101379.69;8274855;28;20562;-59
2023/04/18 14:47:22;;;;;;;10.02;7.20;;;;;;;16.62;64.64;101380.00;8287450;28;20409;-59
2023/04/18 14:51:22;;;;;;;12.38;7.80;;;;;;;16.51;63.72;101388.41;8282094;28;20041;-59
2023/04/18 14:55:24;;;;;;;10.35;6.93;;;;;;;16.59;64.66;101389.34;8288050;28;20136;-59
2023/04/18 14:59:26;;;;;;;13.25;8.80;;;;;;;16.65;63.53;101379.69;8287623;28;20045;-59
2023/04/18 15:03:27;;;;;;;11.20;8.65;;;;;;;16.64;64.87;101380.66;8283310;28;20037;-59
2023/04/18 15:07:27;;;;;;;13.43;8.05;;;;;;;16.68;63.58;101380.19;8285334;28;20107;-59
2023/04/18 15:11:28;;;;;;;9.45;7.45;;;;;;;16.58;63.63;101378.56;8286720;28;20622;-59
2023/04/18 15:15:29;;;;;;;14.52;7.80;;;;;;;16.53;60.96;101381.78;8285497;28;20050;-59
2023/04/18 15:19:30;;;;;;;11.93;7.90;;;;;;;16.70;62.58;101385.50;8287040;28;20057;-59
2023/04/18 15:23:30;;;;;;;14.85;8.10;;;;;;;16.62;61.94;101374.53;8288349;28;20488;-60
2023/04/18 15:27:31;;;;;;;12.27;8.02;;;;;;;16.70;62.92;101371.84;8286868;28;20727;-55
2023/04/18 15:31:32;;;;;;;23.58;9.43;;;;;;;16.83;62.82;101369.53;8285387;28;20124;-59
2023/04/18 15:35:33;;;;;;;13.13;8.88;;;;;;;16.77;63.55;101364.75;8282878;28;20042;-59
2023/04/18 15:39:33;;;;;;;17.30;9.73;;;;;;;16.65;64.19;101363.28;8285942;28;20049;-61
2023/04/18 15:43:34;;;;;;;12.00;8.60;;;;;;;16.80;64.82;101364.44;8285382;28;20277;-61
2023/04/18 15:47:34;;;;;;;11.43;8.52;;;;;;;16.64;63.61;101356.09;8286434;28;20046;-60
2023/04/18 15:51:35;;;;;;;14.30;9.15;;;;;;;16.48;63.60;101361.44;8286593;28;20760;-61
2023/04/18 15:55:35;;;;;;;12.23;9.27;;;;;;;16.61;64.68;101368.19;8287379;28;20046;-61
2023/04/18 15:59:36;;;;;;;13.68;9.27;;;;;;;16.40;64.18;101353.13;8287560;28;20270;-61
2023/04/18 16:03:36;;;;;;;15.65;9.70;;;;;;;16.47;64.56;101355.09;8287059;28;20041;-61
2023/04/18 16:07:38;;;;;;;9.90;8.55;;;;;;;16.49;63.75;101352.22;8274396;28;20309;-61
2023/04/18 16:11:39;;;;;;;14.57;9.90;;;;;;;16.37;63.77;101347.97;8266008;28;20041;-61
2023/04/18 16:15:40;;;;;;;13.75;9.25;;;;;;;16.38;63.81;101352.44;8287972;28;20125;-60
2023/04/18 16:19:41;;;;;;;12.35;8.30;;;;;;;16.49;63.80;101352.22;8285087;28;21580;-61
2023/04/18 16:23:42;;;;;;;11.13;7.88;;;;;;;16.42;63.46;101362.03;8283525;28;20514;-61
2023/04/18 16:27:42;;;;;;;11.65;8.07;;;;;;;16.18;63.95;101365.41;8284483;28;20087;-61
2023/04/18 16:31:43;;;;;;;16.80;8.40;;;;;;;16.04;64.44;101376.84;8271632;28;20089;-61
2023/04/18 16:35:43;;;;;;;13.55;7.60;;;;;;;15.94;65.05;101367.00;8283185;28;20480;-57
2023/04/18 16:39:44;;;;;;;12.13;8.68;;;;;;;15.83;62.21;101359.06;8280319;28;20123;-61
2023/04/18 16:43:44;;;;;;;10.70;7.32;;;;;;;15.94;62.72;101372.47;8298334;28;20038;-61
2023/04/18 16:47:45;;;;;;;8.10;6.72;;;;;;;15.98;61.22;101373.88;8282275;28;20080;-61
2023/04/18 16:51:45;;;;;;;9.43;7.03;;;;;;;15.97;61.58;101373.03;8280510;28;20041;-61
2023/04/18 16:55:46;;;;;;;8.70;7.20;;;;;;;15.96;61.70;101373.19;8292960;28;20046;-61
2023/04/18 16:59:46;;;;;;;10.77;6.95;;;;;;;15.97;62.18;101374.88;8286126;28;20096;-61
2023/04/18 17:03:46;;;;;;;8.25;6.18;;;;;;;15.97;62.14;101369.44;8283265;28;20047;-61
2023/04/18 17:07:49;;;;;;;8.95;6.60;;;;;;;15.93;61.37;101370.75;8280270;28;20038;-61
2023/04/18 17:11:50;;;;;;;8.90;6.43;;;;;;;15.95;61.96;101364.13;8289284;28;20400;-60
2023/04/18 17:15:51;;;;;;;7.30;6.43;;;;;;;15.98;61.94;101369.28;8283885;28;20045;-61
2023/04/18 17:19:51;;;;;;;7.15;6.10;;;;;;;16.02;62.39;101369.84;8285748;28;20065;-61
2023/04/18 17:23:52;;;;;;;9.98;6.80;;;;;;;16.02;61.91;101370.69;8283919;28;21119;-61
2023/04/18 17:27:52;;;;;;;8.05;6.63;;;;;;;15.96;62.20;101370.44;8284609;28;20128;-61
2023/04/18 17:31:53;;;;;;;9.93;6.25;;;;;;;15.87;61.82;101365.91;8283585;28;20081;-63
2023/04/18 17:35:53;;;;;;;8.77;6.10;;;;;;;15.73;61.98;101365.44;8285531;28;20050;-63
2023/04/18 17:39:55;;;;;;;8.73;5.82;;;;;;;15.69;62.81;101363.16;8280414;28;20116;-63
2023/04/18 17:43:56;;;;;;;7.07;5.60;;;;;;;15.54;63.60;101370.13;8285494;28;20042;-60
2023/04/18 17:47:58;;;;;;;7.28;6.20;;;;;;;15.45;64.18;101366.47;8283313;28;20038;-60
2023/04/18 17:51:59;;;;;;;9.20;6.35;;;;;;;15.49;63.92;101376.03;8283764;28;20042;-60
2023/04/18 17:56:00;;;;;;;8.10;6.45;;;;;;;15.54;63.90;101370.13;8284626;28;20038;-60
2023/04/18 18:00:01;;;;;;;8.68;6.53;;;;;;;15.62;63.68;101379.25;8288358;28;20484;-60
2023/04/18 18:04:01;;;;;;;10.18;6.80;;;;;;;15.64;63.95;101382.72;8287448;28;20502;-58
2023/04/18 18:08:02;;;;;;;10.27;6.50;;;;;;;15.37;65.12;101379.97;8287776;28;20037;-60
2023/04/18 18:12:03;;;;;;;8.25;6.47;;;;;;;15.32;65.77;101390.44;8290185;28;20096;-63
2023/04/18 18:16:04;;;;;;;9.52;6.10;;;;;;;15.31;65.51;101396.88;8311101;28;20046;-61
2023/04/18 18:20:08;;;;;;;7.75;6.05;;;;;;;15.37;64.27;101396.31;8324341;28;20045;-60
2023/04/18 18:24:09;;;;;;;5.97;4.60;;;;;;;15.28;64.25;101390.91;8290667;28;20376;-60
2023/04/18 18:28:10;;;;;;;6.85;5.45;;;;;;;15.15;64.60;101391.22;8304757;28;20347;-60
2023/04/18 18:32:10;;;;;;;7.22;5.65;;;;;;;14.95;65.25;101389.53;8291255;28;20045;-60
2023/04/18 18:36:11;;;;;;;7.47;5.82;;;;;;;14.88;65.71;101388.44;8288937;28;20099;-60
2023/04/18 18:40:11;;;;;;;7.45;5.20;;;;;;;14.92;65.61;101392.59;8284483;28;20037;-60
2023/04/18 18:44:12;;;;;;;7.07;5.90;;;;;;;14.81;66.30;101403.63;8291283;28;20068;-60
2023/04/18 18:48:14;;;;;;;9.20;5.20;;;;;;;14.71;66.05;101402.81;8292110;28;20108;-60
2023/04/18 18:52:14;;;;;;;7.28;5.30;;;;;;;14.63;66.69;101405.38;8290693;28;20120;-60
2023/04/18 18:56:15;;;;;;;7.88;5.75;;;;;;;14.58;67.65;101417.72;8290242;28;20042;-60
2023/04/18 19:00:15;;;;;;;7.22;6.10;;;;;;;14.65;69.72;101421.56;8273482;28;20037;-60
2023/04/18 19:04:17;;;;;;;10.75;6.00;;;;;;;14.38;69.34;101424.16;8277484;28;20042;-61
2023/04/18 19:08:17;;;;;;;10.60;6.88;;;;;;;14.04;70.76;101434.53;8282840;28;20104;-60
2023/04/18 19:12:17;;;;;;;13.50;7.05;;;;;;;13.81;71.54;101433.03;8257244;28;20096;-60
2023/04/18 19:16:18;;;;;;;9.80;6.60;;;;;;;13.96;70.43;101434.38;8302992;28;20078;-60
2023/04/18 19:20:19;;;;;;;8.20;6.53;;;;;;;14.03;70.03;101438.25;8283383;28;20042;-60
2023/04/18 19:24:19;;;;;;;7.82;6.30;;;;;;;13.99;70.23;101436.81;8288610;28;20100;-60
2023/04/18 19:28:21;;;;;;;8.93;6.05;;;;;;;13.99;70.42;101447.69;8260266;28;20493;-60
2023/04/18 19:32:22;;;;;;;9.93;6.68;;;;;;;13.99;70.08;101447.69;8286482;28;20472;-59
2023/04/18 19:36:22;;;;;;;8.85;6.75;;;;;;;13.93;70.57;101450.97;8290104;28;20066;-60
2023/04/18 19:40:25;;;;;;;9.88;7.03;;;;;;;13.91;70.66;101450.25;8286822;28;20050;-58
2023/04/18 19:44:25;;;;;;;10.32;6.85;;;;;;;13.98;70.29;101456.84;8287383;28;20403;-62
2023/04/18 19:48:26;;;;;;;9.65;7.07;;;;;;;14.06;70.28;101459.72;8289563;28;20042;-62
2023/04/18 19:52:26;;;;;;;6.97;6.03;;;;;;;14.13;70.55;101465.47;8290829;28;20061;-63
2023/04/18 19:56:27;;;;;;;9.15;6.65;;;;;;;14.32;69.95;101466.38;8289825;28;20137;-62
2023/04/18 20:00:28;;;;;;;8.63;6.10;;;;;;;14.40;69.09;101463.84;8322002;28;20121;-57
2023/04/18 20:04:30;;;;;;;8.98;6.53;;;;;;;14.48;68.45;101466.69;8287688;28;20088;-58
2023/04/18 20:08:35;;;;;;;8.20;6.82;;;;;;;14.41;68.67;101468.25;8290024;28;20042;-58
2023/04/18 20:12:35;;;;;;;8.90;6.68;;;;;;;14.46;68.90;101467.84;8273537;28;20503;-59
2023/04/18 20:16:36;;;;;;;8.57;6.50;;;;;;;14.44;68.68;101475.28;8302575;28;20492;-58
2023/04/18 20:20:37;;;;;;;10.93;6.25;;;;;;;14.39;68.97;101472.97;8291081;28;20057;-63
2023/04/18 20:24:38;;;;;;;8.95;6.30;;;;;;;14.37;69.01;101469.56;8273624;28;20068;-62
2023/04/18 20:28:38;;;;;;;8.82;6.05;;;;;;;14.38;68.50;101476.72;8290697;28;20380;-57
2023/04/18 20:32:38;;;;;;;9.27;6.53;;;;;;;14.45;68.59;101477.00;8289469;28;20038;-57
2023/04/18 20:36:40;;;;;;;9.55;6.05;;;;;;;14.49;68.15;101473.84;8289798;28;20099;-57
2023/04/18 20:40:43;;;;;;;9.68;7.03;;;;;;;14.47;68.58;101480.44;8289869;28;20046;-58
2023/04/18 20:44:45;;;;;;;9.48;6.57;;;;;;;14.38;69.24;101482.16;8290144;28;20046;-60
2023/04/18 20:48:45;;;;;;;9.02;6.07;;;;;;;14.34;69.67;101478.00;8289173;28;20038;-60
2023/04/18 20:52:46;;;;;;;7.32;5.80;;;;;;;14.33;69.31;101476.25;8289699;28;20038;-60
2023/04/18 20:56:47;;;;;;;7.85;6.03;;;;;;;14.31;69.68;101475.56;8288904;28;20073;-62
2023/04/18 21:00:48;;;;;;;11.70;5.97;;;;;;;14.25;70.32;101483.41;8289177;28;20041;-59
2023/04/18 21:04:49;;;;;;;7.90;6.45;;;;;;;14.18;70.36;101477.63;8290225;28;20083;-60
2023/04/18 21:08:49;;;;;;;8.68;6.78;;;;;;;14.19;69.88;101482.09;8289985;28;20076;-60
2023/04/18 21:12:50;;;;;;;7.60;6.50;;;;;;;14.22;70.53;101487.25;8288901;28;20415;-59
2023/04/18 21:16:50;;;;;;;8.50;5.75;;;;;;;14.18;70.50;101488.50;8289836;28;20107;-60
2023/04/18 21:20:51;;;;;;;9.35;6.50;;;;;;;14.17;70.46;101484.09;8289782;28;20041;-59
2023/04/18 21:24:52;;;;;;;10.73;7.05;;;;;;;14.18;69.88;101484.97;8282692;28;20053;-60
2023/04/18 21:28:59;;;;;;;13.75;7.55;;;;;;;14.30;69.53;101492.88;8282891;28;20046;-59
2023/04/18 21:32:59;;;;;;;10.75;7.50;;;;;;;14.35;69.74;101492.44;8288856;28;20067;-59
2023/04/18 21:37:00;;;;;;;14.80;7.38;;;;;;;14.34;70.14;101491.59;8295185;28;20258;-59
2023/04/18 21:41:01;;;;;;;11.13;8.27;;;;;;;14.32;69.91;101499.03;8296438;28;20412;-60
2023/04/18 21:45:03;;;;;;;10.45;8.07;;;;;;;14.33;70.31;101498.03;8296216;28;20057;-59
2023/04/18 21:49:03;;;;;;;11.55;8.00;;;;;;;14.22;70.84;101494.53;8267793;28;20522;-60
2023/04/18 21:53:03;;;;;;;10.90;7.22;;;;;;;14.16;71.06;101493.25;8262527;28;20042;-61
2023/04/18 21:57:05;;;;;;;13.20;8.45;;;;;;;14.17;70.88;101494.97;8262209;28;20093;-60
2023/04/18 22:01:05;;;;;;;11.10;7.60;;;;;;;14.14;71.72;101492.53;8274607;28;20034;-60
2023/04/18 22:05:07;;;;;;;10.80;7.40;;;;;;;14.12;72.03;101494.50;8294415;28;20048;-60
2023/04/18 22:09:07;;;;;;;11.15;8.32;;;;;;;14.12;71.97;101505.38;8292243;28;20113;-60
2023/04/18 22:13:08;;;;;;;12.07;8.65;;;;;;;14.10;72.41;101498.38;8293889;28;20527;-60
2023/04/18 22:17:09;;;;;;;11.48;7.82;;;;;;;14.11;72.50;101495.53;8294506;28;20080;-60
2023/04/18 22:21:10;;;;;;;11.25;7.88;;;;;;;14.09;72.76;101497.50;8294481;28;20041;-60
2023/04/18 22:25:10;;;;;;;13.40;7.97;;;;;;;14.05;73.12;101489.75;8273821;28;20042;-60
2023/04/18 22:29:11;;;;;;;11.10;7.60;;;;;;;14.02;73.45;101493.63;8264012;28;20034;-60
2023/04/18 22:33:11;;;;;;;10.70;8.13;;;;;;;13.92;73.92;101500.91;8284000;28;20044;-60
2023/04/18 22:37:12;;;;;;;14.38;9.20;;;;;;;13.92;73.74;101498.19;8294170;28;20041;-60
2023/04/18 22:41:12;;;;;;;9.63;7.78;;;;;;;13.86;73.84;101496.03;8295084;28;20436;-60
2023/04/18 22:45:13;;;;;;;9.25;7.43;;;;;;;13.83;74.13;101497.16;8295255;28;20038;-60
2023/04/18 22:49:14;;;;;;;12.48;8.45;;;;;;;13.88;74.44;101510.34;8310336;28;20033;-59
2023/04/18 22:53:15;;;;;;;11.75;8.00;;;;;;;13.91;74.04;101506.47;8294667;28;20038;-59
2023/04/18 22:57:15;;;;;;;12.43;8.82;;;;;;;13.86;73.98;101509.63;8295547;28;20404;-58
2023/04/18 23:01:16;;;;;;;13.68;8.40;;;;;;;13.86;74.37;101506.91;8290592;28;20038;-58
2023/04/18 23:05:16;;;;;;;10.70;7.53;;;;;;;13.85;74.37;101505.19;8262350;28;20108;-58
2023/04/18 23:09:18;;;;;;;8.93;7.13;;;;;;;13.89;74.14;101498.47;8261953;28;20038;-58
2023/04/18 23:13:18;;;;;;;13.38;7.68;;;;;;;13.92;74.04;101516.34;8261225;28;20582;-58
2023/04/18 23:17:19;;;;;;;9.95;6.50;;;;;;;13.91;74.30;101510.06;8277080;28;20394;-58
2023/04/18 23:21:20;;;;;;;10.15;6.97;;;;;;;13.83;74.41;101508.03;8269845;28;20121;-58
2023/04/18 23:25:20;;;;;;;8.48;6.15;;;;;;;13.82;74.34;101502.75;8294059;28;20123;-58
2023/04/18 23:29:21;;;;;;;10.43;6.57;;;;;;;13.82;74.06;101500.03;8294218;28;20045;-59
2023/04/18 23:33:21;;;;;;;9.65;6.50;;;;;;;13.85;73.68;101514.19;8293166;28;20046;-58
2023/04/18 23:37:22;;;;;;;8.90;5.95;;;;;;;13.88;74.26;101499.47;8289332;28;20069;-58
2023/04/18 23:41:23;;;;;;;7.78;6.18;;;;;;;13.81;74.98;101509.16;8293473;28;20067;-59
2023/04/18 23:45:23;;;;;;;11.65;6.38;;;;;;;13.79;75.08;101500.28;8293729;28;20046;-59
2023/04/18 23:49:26;;;;;;;9.20;5.90;;;;;;;13.80;74.82;101502.00;8293668;28;20768;-59
2023/04/18 23:53:26;;;;;;;10.20;6.28;;;;;;;13.77;75.25;101505.00;8292993;28;20041;-58
2023/04/18 23:57:27;;;;;;;7.93;6.32;;;;;;;13.73;75.87;101515.28;8292747;28;20552;-61
